sensor_id;sensor_type;location;lat;lon;timestamp;P1;durP1;ratioP1;P2;durP2;ratioP2
72060;SDS011;59925;52.136;5.420;2023-07-20T00:02:11;5.55;;;2.40;;
72060;SDS011;59925;52.136;5.420;2023-07-20T00:04:38;3.50;;;2.20;;
72060;SDS011;59925;52.136;5.420;2023-07-20T00:07:05;3.47;;;2.30;;
72060;SDS011;59925;52.136;5.420;2023-07-20T00:09:31;3.07;;;1.60;;
72060;SDS011;59925;52.136;5.420;2023-07-20T00:11:58;2.97;;;1.90;;
72060;SDS011;59925;52.136;5.420;2023-07-20T00:14:26;2.78;;;2.33;;
72060;SDS011;59925;52.136;5.420;2023-07-20T00:16:54;2.90;;;1.70;;
72060;SDS011;59925;52.136;5.420;2023-07-20T00:19:23;2.53;;;1.80;;
72060;SDS011;59925;52.136;5.420;2023-07-20T00:21:50;2.90;;;2.03;;
72060;SDS011;59925;52.136;5.420;2023-07-20T00:24:17;3.47;;;1.58;;
72060;SDS011;59925;52.136;5.420;2023-07-20T00:26:44;2.97;;;1.90;;
72060;SDS011;59925;52.136;5.420;2023-07-20T00:29:10;3.60;;;2.00;;
72060;SDS011;59925;52.136;5.420;2023-07-20T00:31:37;3.13;;;1.70;;
72060;SDS011;59925;52.136;5.420;2023-07-20T00:34:04;2.87;;;1.63;;
72060;SDS011;59925;52.136;5.420;2023-07-20T00:36:31;1.88;;;1.20;;
72060;SDS011;59925;52.136;5.420;2023-07-20T00:38:58;4.05;;;1.65;;
72060;SDS011;59925;52.136;5.420;2023-07-20T00:41:24;1.48;;;1.00;;
72060;SDS011;59925;52.136;5.420;2023-07-20T00:43:55;2.17;;;1.38;;
72060;SDS011;59925;52.136;5.420;2023-07-20T00:46:23;2.60;;;1.47;;
72060;SDS011;59925;52.136;5.420;2023-07-20T00:48:51;2.20;;;1.35;;
72060;SDS011;59925;52.136;5.420;2023-07-20T00:51:20;2.90;;;1.42;;
72060;SDS011;59925;52.136;5.420;2023-07-20T00:53:47;2.65;;;1.08;;
72060;SDS011;59925;52.136;5.420;2023-07-20T00:56:15;1.63;;;1.20;;
72060;SDS011;59925;52.136;5.420;2023-07-20T00:58:42;2.07;;;0.97;;
72060;SDS011;59925;52.136;5.420;2023-07-20T01:01:09;1.60;;;1.10;;
72060;SDS011;59925;52.136;5.420;2023-07-20T01:03:35;2.25;;;1.20;;
72060;SDS011;59925;52.136;5.420;2023-07-20T01:06:10;2.53;;;1.17;;
72060;SDS011;59925;52.136;5.420;2023-07-20T01:14:02;1.80;;;0.98;;
72060;SDS011;59925;52.136;5.420;2023-07-20T01:16:29;1.65;;;0.90;;
72060;SDS011;59925;52.136;5.420;2023-07-20T01:18:55;2.83;;;1.00;;
72060;SDS011;59925;52.136;5.420;2023-07-20T01:21:26;2.47;;;1.00;;
72060;SDS011;59925;52.136;5.420;2023-07-20T01:32:03;1.58;;;0.93;;
72060;SDS011;59925;52.136;5.420;2023-07-20T01:34:33;1.27;;;0.93;;
72060;SDS011;59925;52.136;5.420;2023-07-20T01:37:02;1.60;;;1.10;;
72060;SDS011;59925;52.136;5.420;2023-07-20T01:39:30;1.73;;;0.70;;
72060;SDS011;59925;52.136;5.420;2023-07-20T01:41:57;1.67;;;1.00;;
72060;SDS011;59925;52.136;5.420;2023-07-20T01:44:24;1.80;;;0.90;;
72060;SDS011;59925;52.136;5.420;2023-07-20T01:46:51;1.40;;;1.10;;
72060;SDS011;59925;52.136;5.420;2023-07-20T01:49:17;1.20;;;0.60;;
72060;SDS011;59925;52.136;5.420;2023-07-20T01:51:44;2.03;;;0.90;;
72060;SDS011;59925;52.136;5.420;2023-07-20T01:54:10;1.40;;;0.88;;
72060;SDS011;59925;52.136;5.420;2023-07-20T01:56:37;3.55;;;1.15;;
72060;SDS011;59925;52.136;5.420;2023-07-20T01:59:04;1.90;;;1.20;;
72060;SDS011;59925;52.136;5.420;2023-07-20T02:01:30;1.83;;;1.00;;
72060;SDS011;59925;52.136;5.420;2023-07-20T02:03:57;1.40;;;0.82;;
72060;SDS011;59925;52.136;5.420;2023-07-20T02:06:23;2.45;;;0.98;;
72060;SDS011;59925;52.136;5.420;2023-07-20T02:08:51;2.33;;;0.90;;
72060;SDS011;59925;52.136;5.420;2023-07-20T02:11:17;1.23;;;0.90;;
72060;SDS011;59925;52.136;5.420;2023-07-20T02:13:44;1.80;;;1.00;;
72060;SDS011;59925;52.136;5.420;2023-07-20T02:16:10;1.58;;;1.00;;
72060;SDS011;59925;52.136;5.420;2023-07-20T02:18:37;2.95;;;1.00;;
72060;SDS011;59925;52.136;5.420;2023-07-20T02:21:04;1.83;;;1.05;;
72060;SDS011;59925;52.136;5.420;2023-07-20T02:23:31;3.28;;;1.30;;
72060;SDS011;59925;52.136;5.420;2023-07-20T02:25:58;1.90;;;1.37;;
72060;SDS011;59925;52.136;5.420;2023-07-20T02:28:24;1.85;;;1.30;;
72060;SDS011;59925;52.136;5.420;2023-07-20T02:30:51;1.77;;;1.17;;
72060;SDS011;59925;52.136;5.420;2023-07-20T02:33:17;2.33;;;1.45;;
72060;SDS011;59925;52.136;5.420;2023-07-20T02:35:44;1.67;;;1.20;;
72060;SDS011;59925;52.136;5.420;2023-07-20T02:38:10;1.83;;;1.30;;
72060;SDS011;59925;52.136;5.420;2023-07-20T02:40:37;2.30;;;1.30;;
72060;SDS011;59925;52.136;5.420;2023-07-20T02:43:03;2.78;;;1.27;;
72060;SDS011;59925;52.136;5.420;2023-07-20T02:45:30;2.83;;;1.05;;
72060;SDS011;59925;52.136;5.420;2023-07-20T02:47:56;1.52;;;1.00;;
72060;SDS011;59925;52.136;5.420;2023-07-20T02:50:23;1.37;;;0.90;;
72060;SDS011;59925;52.136;5.420;2023-07-20T02:52:50;2.15;;;1.08;;
72060;SDS011;59925;52.136;5.420;2023-07-20T02:55:16;1.92;;;1.17;;
72060;SDS011;59925;52.136;5.420;2023-07-20T02:57:43;1.58;;;0.90;;
72060;SDS011;59925;52.136;5.420;2023-07-20T03:00:10;1.80;;;1.20;;
72060;SDS011;59925;52.136;5.420;2023-07-20T03:02:37;1.97;;;0.90;;
72060;SDS011;59925;52.136;5.420;2023-07-20T03:05:05;3.47;;;1.20;;
72060;SDS011;59925;52.136;5.420;2023-07-20T03:07:33;2.78;;;1.35;;
72060;SDS011;59925;52.136;5.420;2023-07-20T03:10:00;2.33;;;1.13;;
72060;SDS011;59925;52.136;5.420;2023-07-20T03:12:26;2.30;;;1.20;;
72060;SDS011;59925;52.136;5.420;2023-07-20T03:14:53;2.13;;;1.10;;
72060;SDS011;59925;52.136;5.420;2023-07-20T03:17:20;2.05;;;1.15;;
72060;SDS011;59925;52.136;5.420;2023-07-20T03:19:47;3.05;;;1.15;;
72060;SDS011;59925;52.136;5.420;2023-07-20T03:22:13;1.88;;;1.20;;
72060;SDS011;59925;52.136;5.420;2023-07-20T03:24:40;2.80;;;1.00;;
72060;SDS011;59925;52.136;5.420;2023-07-20T03:27:06;2.53;;;0.90;;
72060;SDS011;59925;52.136;5.420;2023-07-20T03:29:33;1.73;;;1.10;;
72060;SDS011;59925;52.136;5.420;2023-07-20T03:31:59;2.10;;;1.20;;
72060;SDS011;59925;52.136;5.420;2023-07-20T03:34:26;1.75;;;1.00;;
72060;SDS011;59925;52.136;5.420;2023-07-20T03:36:53;1.50;;;1.05;;
72060;SDS011;59925;52.136;5.420;2023-07-20T03:39:19;1.30;;;0.80;;
72060;SDS011;59925;52.136;5.420;2023-07-20T03:41:45;1.75;;;0.75;;
72060;SDS011;59925;52.136;5.420;2023-07-20T03:44:12;1.42;;;0.95;;
72060;SDS011;59925;52.136;5.420;2023-07-20T03:46:39;1.20;;;0.82;;
72060;SDS011;59925;52.136;5.420;2023-07-20T03:49:05;4.03;;;1.00;;
72060;SDS011;59925;52.136;5.420;2023-07-20T03:51:32;1.73;;;0.90;;
72060;SDS011;59925;52.136;5.420;2023-07-20T03:53:59;2.25;;;1.08;;
72060;SDS011;59925;52.136;5.420;2023-07-20T03:56:25;1.27;;;0.80;;
72060;SDS011;59925;52.136;5.420;2023-07-20T03:58:52;2.03;;;0.98;;
72060;SDS011;59925;52.136;5.420;2023-07-20T04:01:19;1.13;;;0.70;;
72060;SDS011;59925;52.136;5.420;2023-07-20T04:03:45;2.40;;;0.93;;
72060;SDS011;59925;52.136;5.420;2023-07-20T04:06:15;2.53;;;1.20;;
72060;SDS011;59925;52.136;5.420;2023-07-20T04:08:43;1.92;;;1.10;;
72060;SDS011;59925;52.136;5.420;2023-07-20T04:11:10;1.50;;;1.02;;
72060;SDS011;59925;52.136;5.420;2023-07-20T04:13:37;1.55;;;0.98;;
72060;SDS011;59925;52.136;5.420;2023-07-20T04:16:03;1.83;;;1.03;;
72060;SDS011;59925;52.136;5.420;2023-07-20T04:18:30;1.30;;;1.00;;
72060;SDS011;59925;52.136;5.420;2023-07-20T04:20:57;2.58;;;1.10;;
72060;SDS011;59925;52.136;5.420;2023-07-20T04:23:23;2.20;;;1.20;;
72060;SDS011;59925;52.136;5.420;2023-07-20T04:25:50;1.40;;;0.93;;
72060;SDS011;59925;52.136;5.420;2023-07-20T04:28:18;2.27;;;1.50;;
72060;SDS011;59925;52.136;5.420;2023-07-20T04:30:44;1.70;;;1.20;;
72060;SDS011;59925;52.136;5.420;2023-07-20T04:33:11;1.92;;;1.45;;
72060;SDS011;59925;52.136;5.420;2023-07-20T04:35:45;2.85;;;1.50;;
72060;SDS011;59925;52.136;5.420;2023-07-20T04:38:19;2.92;;;1.30;;
72060;SDS011;59925;52.136;5.420;2023-07-20T04:40:48;3.07;;;1.40;;
72060;SDS011;59925;52.136;5.420;2023-07-20T04:43:16;2.55;;;1.67;;
72060;SDS011;59925;52.136;5.420;2023-07-20T04:45:43;2.72;;;1.52;;
72060;SDS011;59925;52.136;5.420;2023-07-20T04:48:11;2.13;;;1.00;;
72060;SDS011;59925;52.136;5.420;2023-07-20T04:50:42;1.45;;;0.90;;
72060;SDS011;59925;52.136;5.420;2023-07-20T04:53:11;1.60;;;1.07;;
72060;SDS011;59925;52.136;5.420;2023-07-20T04:55:39;2.65;;;1.30;;
72060;SDS011;59925;52.136;5.420;2023-07-20T04:58:06;3.22;;;1.17;;
72060;SDS011;59925;52.136;5.420;2023-07-20T05:00:33;1.83;;;1.05;;
72060;SDS011;59925;52.136;5.420;2023-07-20T05:03:00;4.10;;;1.40;;
72060;SDS011;59925;52.136;5.420;2023-07-20T05:05:28;2.40;;;1.80;;
72060;SDS011;59925;52.136;5.420;2023-07-20T05:07:54;2.25;;;1.60;;
72060;SDS011;59925;52.136;5.420;2023-07-20T05:10:21;3.55;;;1.73;;
72060;SDS011;59925;52.136;5.420;2023-07-20T05:12:47;2.35;;;1.65;;
72060;SDS011;59925;52.136;5.420;2023-07-20T05:15:14;3.78;;;1.50;;
72060;SDS011;59925;52.136;5.420;2023-07-20T05:17:41;4.53;;;1.73;;
72060;SDS011;59925;52.136;5.420;2023-07-20T05:20:07;2.97;;;1.90;;
72060;SDS011;59925;52.136;5.420;2023-07-20T05:22:38;2.63;;;1.92;;
72060;SDS011;59925;52.136;5.420;2023-07-20T05:25:10;4.45;;;1.85;;
72060;SDS011;59925;52.136;5.420;2023-07-20T05:27:37;3.70;;;1.98;;
72060;SDS011;59925;52.136;5.420;2023-07-20T05:30:05;2.80;;;1.70;;
72060;SDS011;59925;52.136;5.420;2023-07-20T05:32:33;2.70;;;1.83;;
72060;SDS011;59925;52.136;5.420;2023-07-20T05:35:00;3.53;;;2.00;;
72060;SDS011;59925;52.136;5.420;2023-07-20T05:37:27;2.70;;;1.90;;
72060;SDS011;59925;52.136;5.420;2023-07-20T05:39:53;3.60;;;2.13;;
72060;SDS011;59925;52.136;5.420;2023-07-20T05:42:20;2.93;;;1.70;;
72060;SDS011;59925;52.136;5.420;2023-07-20T05:44:46;8.23;;;3.00;;
72060;SDS011;59925;52.136;5.420;2023-07-20T05:47:19;4.32;;;2.30;;
72060;SDS011;59925;52.136;5.420;2023-07-20T05:49:45;4.05;;;1.75;;
72060;SDS011;59925;52.136;5.420;2023-07-20T05:52:12;3.22;;;1.60;;
72060;SDS011;59925;52.136;5.420;2023-07-20T05:54:39;3.73;;;1.70;;
72060;SDS011;59925;52.136;5.420;2023-07-20T05:57:05;4.68;;;1.60;;
72060;SDS011;59925;52.136;5.420;2023-07-20T05:59:32;2.00;;;1.63;;
72060;SDS011;59925;52.136;5.420;2023-07-20T06:01:59;4.13;;;1.60;;
72060;SDS011;59925;52.136;5.420;2023-07-20T06:04:25;3.90;;;1.80;;
72060;SDS011;59925;52.136;5.420;2023-07-20T06:06:51;2.43;;;1.50;;
72060;SDS011;59925;52.136;5.420;2023-07-20T06:09:18;3.33;;;1.65;;
72060;SDS011;59925;52.136;5.420;2023-07-20T06:11:45;2.90;;;1.23;;
72060;SDS011;59925;52.136;5.420;2023-07-20T06:14:11;1.92;;;1.10;;
72060;SDS011;59925;52.136;5.420;2023-07-20T06:16:38;1.70;;;1.30;;
72060;SDS011;59925;52.136;5.420;2023-07-20T06:19:05;1.67;;;1.40;;
72060;SDS011;59925;52.136;5.420;2023-07-20T06:21:31;2.28;;;1.20;;
72060;SDS011;59925;52.136;5.420;2023-07-20T06:23:58;4.40;;;1.27;;
72060;SDS011;59925;52.136;5.420;2023-07-20T06:26:25;1.98;;;0.85;;
72060;SDS011;59925;52.136;5.420;2023-07-20T06:28:51;2.78;;;1.00;;
72060;SDS011;59925;52.136;5.420;2023-07-20T06:31:18;2.23;;;1.00;;
72060;SDS011;59925;52.136;5.420;2023-07-20T06:33:44;1.98;;;1.10;;
72060;SDS011;59925;52.136;5.420;2023-07-20T06:36:11;1.55;;;0.90;;
72060;SDS011;59925;52.136;5.420;2023-07-20T06:38:38;1.20;;;0.60;;
72060;SDS011;59925;52.136;5.420;2023-07-20T06:41:04;1.08;;;0.70;;
72060;SDS011;59925;52.136;5.420;2023-07-20T06:43:34;1.80;;;0.90;;
72060;SDS011;59925;52.136;5.420;2023-07-20T06:46:04;2.60;;;1.15;;
72060;SDS011;59925;52.136;5.420;2023-07-20T06:48:30;2.20;;;0.70;;
72060;SDS011;59925;52.136;5.420;2023-07-20T06:50:57;2.75;;;0.85;;
72060;SDS011;59925;52.136;5.420;2023-07-20T06:53:23;1.40;;;0.52;;
72060;SDS011;59925;52.136;5.420;2023-07-20T06:55:50;1.40;;;0.60;;
72060;SDS011;59925;52.136;5.420;2023-07-20T06:58:16;1.73;;;0.80;;
72060;SDS011;59925;52.136;5.420;2023-07-20T07:00:44;1.65;;;0.80;;
72060;SDS011;59925;52.136;5.420;2023-07-20T07:03:11;4.00;;;0.95;;
72060;SDS011;59925;52.136;5.420;2023-07-20T07:05:37;2.83;;;0.90;;
72060;SDS011;59925;52.136;5.420;2023-07-20T07:08:04;1.40;;;0.73;;
72060;SDS011;59925;52.136;5.420;2023-07-20T07:10:31;2.25;;;0.57;;
72060;SDS011;59925;52.136;5.420;2023-07-20T07:12:59;1.48;;;0.60;;
72060;SDS011;59925;52.136;5.420;2023-07-20T07:15:26;2.08;;;0.60;;
72060;SDS011;59925;52.136;5.420;2023-07-20T07:17:54;1.83;;;0.60;;
72060;SDS011;59925;52.136;5.420;2023-07-20T07:20:21;0.77;;;0.60;;
72060;SDS011;59925;52.136;5.420;2023-07-20T07:22:49;0.98;;;0.50;;
72060;SDS011;59925;52.136;5.420;2023-07-20T07:25:21;1.42;;;0.80;;
72060;SDS011;59925;52.136;5.420;2023-07-20T07:27:49;1.42;;;0.60;;
72060;SDS011;59925;52.136;5.420;2023-07-20T07:30:17;0.98;;;0.40;;
72060;SDS011;59925;52.136;5.420;2023-07-20T07:32:44;6.83;;;0.70;;
72060;SDS011;59925;52.136;5.420;2023-07-20T07:35:10;2.28;;;0.45;;
72060;SDS011;59925;52.136;5.420;2023-07-20T07:37:37;2.15;;;0.60;;
72060;SDS011;59925;52.136;5.420;2023-07-20T07:40:24;0.95;;;0.55;;
72060;SDS011;59925;52.136;5.420;2023-07-20T07:42:51;2.47;;;0.43;;
72060;SDS011;59925;52.136;5.420;2023-07-20T07:45:17;3.20;;;0.50;;
72060;SDS011;59925;52.136;5.420;2023-07-20T07:47:43;1.92;;;0.60;;
72060;SDS011;59925;52.136;5.420;2023-07-20T07:50:10;1.45;;;0.60;;
72060;SDS011;59925;52.136;5.420;2023-07-20T07:52:37;0.82;;;0.50;;
72060;SDS011;59925;52.136;5.420;2023-07-20T07:55:04;1.02;;;0.47;;
72060;SDS011;59925;52.136;5.420;2023-07-20T07:57:31;1.20;;;0.50;;
72060;SDS011;59925;52.136;5.420;2023-07-20T07:59:57;1.10;;;0.50;;
72060;SDS011;59925;52.136;5.420;2023-07-20T08:02:24;0.52;;;0.40;;
72060;SDS011;59925;52.136;5.420;2023-07-20T08:04:50;4.60;;;0.47;;
72060;SDS011;59925;52.136;5.420;2023-07-20T08:07:18;0.95;;;0.50;;
72060;SDS011;59925;52.136;5.420;2023-07-20T08:09:45;0.80;;;0.40;;
72060;SDS011;59925;52.136;5.420;2023-07-20T08:12:11;0.90;;;0.50;;
72060;SDS011;59925;52.136;5.420;2023-07-20T08:14:39;1.95;;;0.60;;
72060;SDS011;59925;52.136;5.420;2023-07-20T08:17:06;2.55;;;0.50;;
72060;SDS011;59925;52.136;5.420;2023-07-20T08:19:33;1.92;;;0.40;;
72060;SDS011;59925;52.136;5.420;2023-07-20T08:22:00;1.13;;;0.30;;
72060;SDS011;59925;52.136;5.420;2023-07-20T08:24:26;1.52;;;0.40;;
72060;SDS011;59925;52.136;5.420;2023-07-20T08:26:53;0.43;;;0.30;;
72060;SDS011;59925;52.136;5.420;2023-07-20T08:29:19;1.13;;;0.40;;
72060;SDS011;59925;52.136;5.420;2023-07-20T08:31:46;1.00;;;0.38;;
72060;SDS011;59925;52.136;5.420;2023-07-20T08:34:12;1.80;;;0.30;;
72060;SDS011;59925;52.136;5.420;2023-07-20T08:36:54;1.27;;;0.43;;
72060;SDS011;59925;52.136;5.420;2023-07-20T08:39:23;1.55;;;0.70;;
72060;SDS011;59925;52.136;5.420;2023-07-20T08:41:50;0.80;;;0.30;;
72060;SDS011;59925;52.136;5.420;2023-07-20T08:44:20;0.77;;;0.40;;
72060;SDS011;59925;52.136;5.420;2023-07-20T08:46:46;1.23;;;0.43;;
72060;SDS011;59925;52.136;5.420;2023-07-20T08:49:14;0.40;;;0.30;;
72060;SDS011;59925;52.136;5.420;2023-07-20T08:51:42;0.93;;;0.40;;
72060;SDS011;59925;52.136;5.420;2023-07-20T08:54:12;1.60;;;0.40;;
72060;SDS011;59925;52.136;5.420;2023-07-20T08:56:39;0.90;;;0.60;;
72060;SDS011;59925;52.136;5.420;2023-07-20T08:59:07;2.40;;;0.50;;
72060;SDS011;59925;52.136;5.420;2023-07-20T09:01:35;3.15;;;0.75;;
72060;SDS011;59925;52.136;5.420;2023-07-20T09:04:03;1.17;;;0.60;;
72060;SDS011;59925;52.136;5.420;2023-07-20T09:06:30;1.00;;;0.40;;
72060;SDS011;59925;52.136;5.420;2023-07-20T09:08:57;0.80;;;0.40;;
72060;SDS011;59925;52.136;5.420;2023-07-20T09:11:24;2.07;;;0.40;;
72060;SDS011;59925;52.136;5.420;2023-07-20T09:14:07;0.77;;;0.50;;
72060;SDS011;59925;52.136;5.420;2023-07-20T09:16:47;0.63;;;0.40;;
72060;SDS011;59925;52.136;5.420;2023-07-20T09:19:16;0.60;;;0.32;;
72060;SDS011;59925;52.136;5.420;2023-07-20T09:21:46;1.15;;;0.40;;
72060;SDS011;59925;52.136;5.420;2023-07-20T09:24:14;0.30;;;0.30;;
72060;SDS011;59925;52.136;5.420;2023-07-20T09:26:43;0.88;;;0.88;;
72060;SDS011;59925;52.136;5.420;2023-07-20T09:29:11;1.35;;;0.40;;
72060;SDS011;59925;52.136;5.420;2023-07-20T09:31:38;0.95;;;0.30;;
72060;SDS011;59925;52.136;5.420;2023-07-20T09:34:07;0.30;;;0.30;;
72060;SDS011;59925;52.136;5.420;2023-07-20T09:36:34;0.80;;;0.30;;
72060;SDS011;59925;52.136;5.420;2023-07-20T09:39:05;0.55;;;0.30;;
72060;SDS011;59925;52.136;5.420;2023-07-20T09:41:41;1.17;;;0.40;;
72060;SDS011;59925;52.136;5.420;2023-07-20T09:44:11;2.05;;;0.40;;
72060;SDS011;59925;52.136;5.420;2023-07-20T09:46:41;0.80;;;0.47;;
72060;SDS011;59925;52.136;5.420;2023-07-20T09:49:11;0.70;;;0.30;;
72060;SDS011;59925;52.136;5.420;2023-07-20T09:51:41;0.40;;;0.30;;
72060;SDS011;59925;52.136;5.420;2023-07-20T09:54:08;0.57;;;0.30;;
72060;SDS011;59925;52.136;5.420;2023-07-20T09:56:35;0.80;;;0.30;;
72060;SDS011;59925;52.136;5.420;2023-07-20T09:59:04;0.65;;;0.47;;
72060;SDS011;59925;52.136;5.420;2023-07-20T10:01:30;1.03;;;0.53;;
72060;SDS011;59925;52.136;5.420;2023-07-20T10:03:59;1.38;;;0.40;;
72060;SDS011;59925;52.136;5.420;2023-07-20T10:06:29;0.60;;;0.43;;
72060;SDS011;59925;52.136;5.420;2023-07-20T10:09:02;0.47;;;0.30;;
72060;SDS011;59925;52.136;5.420;2023-07-20T10:11:30;0.70;;;0.50;;
72060;SDS011;59925;52.136;5.420;2023-07-20T10:14:01;0.60;;;0.30;;
72060;SDS011;59925;52.136;5.420;2023-07-20T10:16:35;1.33;;;0.50;;
72060;SDS011;59925;52.136;5.420;2023-07-20T10:19:07;1.10;;;0.50;;
72060;SDS011;59925;52.136;5.420;2023-07-20T10:21:45;1.67;;;0.30;;
72060;SDS011;59925;52.136;5.420;2023-07-20T10:24:21;1.20;;;0.50;;
72060;SDS011;59925;52.136;5.420;2023-07-20T10:26:49;0.60;;;0.40;;
72060;SDS011;59925;52.136;5.420;2023-07-20T10:29:16;1.63;;;0.40;;
72060;SDS011;59925;52.136;5.420;2023-07-20T10:31:43;0.70;;;0.40;;
72060;SDS011;59925;52.136;5.420;2023-07-20T10:34:10;0.60;;;0.30;;
72060;SDS011;59925;52.136;5.420;2023-07-20T10:36:45;1.10;;;0.40;;
72060;SDS011;59925;52.136;5.420;2023-07-20T10:39:24;1.03;;;0.30;;
72060;SDS011;59925;52.136;5.420;2023-07-20T10:42:03;0.70;;;0.40;;
72060;SDS011;59925;52.136;5.420;2023-07-20T10:44:34;0.50;;;0.40;;
72060;SDS011;59925;52.136;5.420;2023-07-20T10:47:06;0.70;;;0.40;;
72060;SDS011;59925;52.136;5.420;2023-07-20T10:52:36;0.57;;;0.40;;
72060;SDS011;59925;52.136;5.420;2023-07-20T10:55:17;0.85;;;0.50;;
72060;SDS011;59925;52.136;5.420;2023-07-20T10:58:05;0.70;;;0.40;;
72060;SDS011;59925;52.136;5.420;2023-07-20T11:00:33;0.60;;;0.40;;
72060;SDS011;59925;52.136;5.420;2023-07-20T11:02:59;0.57;;;0.30;;
72060;SDS011;59925;52.136;5.420;2023-07-20T11:08:04;7.43;;;1.95;;
72060;SDS011;59925;52.136;5.420;2023-07-20T11:11:13;0.65;;;0.40;;
72060;SDS011;59925;52.136;5.420;2023-07-20T11:13:55;0.77;;;0.35;;
72060;SDS011;59925;52.136;5.420;2023-07-20T11:19:02;0.67;;;0.30;;
72060;SDS011;59925;52.136;5.420;2023-07-20T11:21:39;2.03;;;0.40;;
72060;SDS011;59925;52.136;5.420;2023-07-20T11:24:26;0.70;;;0.30;;
72060;SDS011;59925;52.136;5.420;2023-07-20T11:26:53;1.77;;;0.40;;
72060;SDS011;59925;52.136;5.420;2023-07-20T11:29:21;0.47;;;0.40;;
72060;SDS011;59925;52.136;5.420;2023-07-20T11:31:58;1.47;;;0.60;;
72060;SDS011;59925;52.136;5.420;2023-07-20T11:34:25;0.40;;;0.38;;
72060;SDS011;59925;52.136;5.420;2023-07-20T11:36:53;0.90;;;0.40;;
72060;SDS011;59925;52.136;5.420;2023-07-20T11:39:23;1.40;;;0.40;;
72060;SDS011;59925;52.136;5.420;2023-07-20T11:41:52;1.42;;;0.50;;
72060;SDS011;59925;52.136;5.420;2023-07-20T11:44:21;0.90;;;0.40;;
72060;SDS011;59925;52.136;5.420;2023-07-20T11:47:05;0.50;;;0.47;;
72060;SDS011;59925;52.136;5.420;2023-07-20T11:49:36;1.10;;;0.60;;
72060;SDS011;59925;52.136;5.420;2023-07-20T11:52:10;2.10;;;0.43;;
72060;SDS011;59925;52.136;5.420;2023-07-20T11:54:39;0.57;;;0.40;;
72060;SDS011;59925;52.136;5.420;2023-07-20T11:57:19;0.87;;;0.50;;
72060;SDS011;59925;52.136;5.420;2023-07-20T11:59:56;0.73;;;0.40;;
72060;SDS011;59925;52.136;5.420;2023-07-20T12:02:24;0.60;;;0.50;;
72060;SDS011;59925;52.136;5.420;2023-07-20T12:04:53;0.85;;;0.50;;
72060;SDS011;59925;52.136;5.420;2023-07-20T12:07:21;1.00;;;0.50;;
72060;SDS011;59925;52.136;5.420;2023-07-20T12:12:34;0.50;;;0.40;;
72060;SDS011;59925;52.136;5.420;2023-07-20T12:17:45;0.50;;;0.30;;
72060;SDS011;59925;52.136;5.420;2023-07-20T12:20:13;0.70;;;0.40;;
72060;SDS011;59925;52.136;5.420;2023-07-20T12:22:50;2.00;;;0.50;;
72060;SDS011;59925;52.136;5.420;2023-07-20T12:25:16;0.85;;;0.60;;
72060;SDS011;59925;52.136;5.420;2023-07-20T12:27:47;0.50;;;0.40;;
72060;SDS011;59925;52.136;5.420;2023-07-20T12:30:14;2.15;;;0.50;;
72060;SDS011;59925;52.136;5.420;2023-07-20T12:32:41;0.60;;;0.60;;
72060;SDS011;59925;52.136;5.420;2023-07-20T12:35:08;2.57;;;0.50;;
72060;SDS011;59925;52.136;5.420;2023-07-20T12:37:35;1.20;;;0.50;;
72060;SDS011;59925;52.136;5.420;2023-07-20T12:40:01;1.10;;;0.50;;
72060;SDS011;59925;52.136;5.420;2023-07-20T12:42:28;1.02;;;0.40;;
72060;SDS011;59925;52.136;5.420;2023-07-20T12:44:55;1.50;;;0.55;;
72060;SDS011;59925;52.136;5.420;2023-07-20T12:47:21;1.10;;;0.50;;
72060;SDS011;59925;52.136;5.420;2023-07-20T12:49:48;1.33;;;0.50;;
72060;SDS011;59925;52.136;5.420;2023-07-20T12:52:15;0.70;;;0.55;;
72060;SDS011;59925;52.136;5.420;2023-07-20T12:54:41;1.17;;;0.50;;
72060;SDS011;59925;52.136;5.420;2023-07-20T12:57:08;1.95;;;0.63;;
72060;SDS011;59925;52.136;5.420;2023-07-20T12:59:37;1.43;;;0.50;;
72060;SDS011;59925;52.136;5.420;2023-07-20T13:02:04;2.40;;;0.50;;
72060;SDS011;59925;52.136;5.420;2023-07-20T13:04:31;1.52;;;0.50;;
72060;SDS011;59925;52.136;5.420;2023-07-20T13:06:58;1.52;;;0.50;;
72060;SDS011;59925;52.136;5.420;2023-07-20T13:09:26;1.80;;;0.73;;
72060;SDS011;59925;52.136;5.420;2023-07-20T13:11:52;1.17;;;0.40;;
72060;SDS011;59925;52.136;5.420;2023-07-20T13:14:19;0.95;;;0.50;;
72060;SDS011;59925;52.136;5.420;2023-07-20T13:16:45;0.70;;;0.40;;
72060;SDS011;59925;52.136;5.420;2023-07-20T13:19:12;1.13;;;0.60;;
72060;SDS011;59925;52.136;5.420;2023-07-20T13:21:39;1.00;;;0.55;;
72060;SDS011;59925;52.136;5.420;2023-07-20T13:24:05;1.07;;;0.53;;
72060;SDS011;59925;52.136;5.420;2023-07-20T13:26:32;1.13;;;0.60;;
72060;SDS011;59925;52.136;5.420;2023-07-20T13:28:58;1.00;;;0.50;;
72060;SDS011;59925;52.136;5.420;2023-07-20T13:31:25;0.88;;;0.82;;
72060;SDS011;59925;52.136;5.420;2023-07-20T13:33:53;1.33;;;0.60;;
72060;SDS011;59925;52.136;5.420;2023-07-20T13:36:25;1.00;;;0.63;;
72060;SDS011;59925;52.136;5.420;2023-07-20T13:38:52;1.83;;;0.65;;
72060;SDS011;59925;52.136;5.420;2023-07-20T13:41:20;1.45;;;0.57;;
72060;SDS011;59925;52.136;5.420;2023-07-20T13:43:47;1.63;;;0.75;;
72060;SDS011;59925;52.136;5.420;2023-07-20T13:46:13;2.20;;;0.80;;
72060;SDS011;59925;52.136;5.420;2023-07-20T13:48:42;0.70;;;0.50;;
72060;SDS011;59925;52.136;5.420;2023-07-20T13:51:09;1.48;;;0.77;;
72060;SDS011;59925;52.136;5.420;2023-07-20T13:53:35;1.10;;;0.70;;
72060;SDS011;59925;52.136;5.420;2023-07-20T13:56:05;1.25;;;0.55;;
72060;SDS011;59925;52.136;5.420;2023-07-20T13:58:34;1.70;;;0.73;;
72060;SDS011;59925;52.136;5.420;2023-07-20T14:01:01;1.93;;;0.80;;
72060;SDS011;59925;52.136;5.420;2023-07-20T14:03:27;0.90;;;0.52;;
72060;SDS011;59925;52.136;5.420;2023-07-20T14:05:54;0.80;;;0.55;;
72060;SDS011;59925;52.136;5.420;2023-07-20T14:08:23;1.05;;;0.68;;
72060;SDS011;59925;52.136;5.420;2023-07-20T14:10:50;1.00;;;0.50;;
72060;SDS011;59925;52.136;5.420;2023-07-20T14:13:19;1.73;;;0.60;;
72060;SDS011;59925;52.136;5.420;2023-07-20T14:15:56;2.00;;;0.80;;
72060;SDS011;59925;52.136;5.420;2023-07-20T14:18:22;1.05;;;0.70;;
72060;SDS011;59925;52.136;5.420;2023-07-20T14:20:49;1.23;;;0.70;;
72060;SDS011;59925;52.136;5.420;2023-07-20T14:23:16;1.73;;;0.50;;
72060;SDS011;59925;52.136;5.420;2023-07-20T14:25:42;1.20;;;0.57;;
72060;SDS011;59925;52.136;5.420;2023-07-20T14:28:09;1.75;;;0.60;;
72060;SDS011;59925;52.136;5.420;2023-07-20T14:30:35;0.82;;;0.60;;
72060;SDS011;59925;52.136;5.420;2023-07-20T14:33:02;0.70;;;0.60;;
72060;SDS011;59925;52.136;5.420;2023-07-20T14:35:29;1.63;;;0.60;;
72060;SDS011;59925;52.136;5.420;2023-07-20T14:37:55;1.30;;;0.50;;
72060;SDS011;59925;52.136;5.420;2023-07-20T14:40:22;1.33;;;0.60;;
72060;SDS011;59925;52.136;5.420;2023-07-20T14:42:49;0.82;;;0.60;;
72060;SDS011;59925;52.136;5.420;2023-07-20T14:45:15;0.80;;;0.50;;
72060;SDS011;59925;52.136;5.420;2023-07-20T14:47:42;1.13;;;0.70;;
72060;SDS011;59925;52.136;5.420;2023-07-20T14:50:09;0.77;;;0.50;;
72060;SDS011;59925;52.136;5.420;2023-07-20T14:52:37;1.73;;;0.60;;
72060;SDS011;59925;52.136;5.420;2023-07-20T14:55:14;0.70;;;0.55;;
72060;SDS011;59925;52.136;5.420;2023-07-20T14:57:41;1.77;;;0.68;;
72060;SDS011;59925;52.136;5.420;2023-07-20T15:00:08;0.50;;;0.50;;
72060;SDS011;59925;52.136;5.420;2023-07-20T15:02:37;1.73;;;0.70;;
72060;SDS011;59925;52.136;5.420;2023-07-20T15:05:06;1.38;;;0.60;;
72060;SDS011;59925;52.136;5.420;2023-07-20T15:07:33;1.17;;;0.57;;
72060;SDS011;59925;52.136;5.420;2023-07-20T15:10:01;1.00;;;0.70;;
72060;SDS011;59925;52.136;5.420;2023-07-20T15:12:28;1.05;;;0.68;;
72060;SDS011;59925;52.136;5.420;2023-07-20T15:15:02;1.17;;;0.50;;
72060;SDS011;59925;52.136;5.420;2023-07-20T15:17:36;2.45;;;0.50;;
72060;SDS011;59925;52.136;5.420;2023-07-20T15:20:04;1.95;;;0.70;;
72060;SDS011;59925;52.136;5.420;2023-07-20T15:22:32;0.80;;;0.50;;